sensor_id;sensor_type;location;lat;lon;timestamp;P1;durP1;ratioP1;P2;durP2;ratioP2
36221;SDS011;22266;52.340;4.962;2023-05-23T00:00:57;18.50;;;15.25;;
36221;SDS011;22266;52.340;4.962;2023-05-23T00:03:25;21.00;;;15.75;;
36221;SDS011;22266;52.340;4.962;2023-05-23T00:05:52;21.25;;;18.75;;
36221;SDS011;22266;52.340;4.962;2023-05-23T00:08:18;19.00;;;17.50;;
36221;SDS011;22266;52.340;4.962;2023-05-23T00:10:45;22.00;;;16.75;;
36221;SDS011;22266;52.340;4.962;2023-05-23T00:13:12;20.00;;;18.75;;
36221;SDS011;22266;52.340;4.962;2023-05-23T00:15:40;16.25;;;14.50;;
36221;SDS011;22266;52.340;4.962;2023-05-23T00:18:07;13.25;;;11.75;;
36221;SDS011;22266;52.340;4.962;2023-05-23T00:20:36;10.25;;;9.50;;
36221;SDS011;22266;52.340;4.962;2023-05-23T00:23:06;7.25;;;6.75;;
36221;SDS011;22266;52.340;4.962;2023-05-23T00:25:34;12.00;;;10.75;;
36221;SDS011;22266;52.340;4.962;2023-05-23T00:28:01;9.50;;;6.75;;
36221;SDS011;22266;52.340;4.962;2023-05-23T00:30:32;8.25;;;8.25;;
36221;SDS011;22266;52.340;4.962;2023-05-23T00:32:59;7.50;;;6.00;;
36221;SDS011;22266;52.340;4.962;2023-05-23T00:35:26;9.00;;;9.00;;
36221;SDS011;22266;52.340;4.962;2023-05-23T00:37:53;8.00;;;7.75;;
36221;SDS011;22266;52.340;4.962;2023-05-23T00:40:21;10.00;;;9.75;;
36221;SDS011;22266;52.340;4.962;2023-05-23T00:42:48;8.25;;;8.00;;
36221;SDS011;22266;52.340;4.962;2023-05-23T00:45:14;14.50;;;13.50;;
36221;SDS011;22266;52.340;4.962;2023-05-23T00:47:42;10.00;;;10.00;;
36221;SDS011;22266;52.340;4.962;2023-05-23T00:50:11;11.75;;;9.25;;
36221;SDS011;22266;52.340;4.962;2023-05-23T00:52:40;13.00;;;10.00;;
36221;SDS011;22266;52.340;4.962;2023-05-23T00:55:07;12.00;;;10.25;;
36221;SDS011;22266;52.340;4.962;2023-05-23T00:57:35;8.50;;;7.50;;
36221;SDS011;22266;52.340;4.962;2023-05-23T01:00:10;12.00;;;12.00;;
36221;SDS011;22266;52.340;4.962;2023-05-23T01:02:39;12.75;;;10.50;;
36221;SDS011;22266;52.340;4.962;2023-05-23T01:05:10;16.50;;;11.50;;
36221;SDS011;22266;52.340;4.962;2023-05-23T01:07:43;9.75;;;8.50;;
36221;SDS011;22266;52.340;4.962;2023-05-23T01:10:10;13.75;;;11.00;;
36221;SDS011;22266;52.340;4.962;2023-05-23T01:21:25;13.00;;;11.50;;
36221;SDS011;22266;52.340;4.962;2023-05-23T01:24:02;14.75;;;12.25;;
36221;SDS011;22266;52.340;4.962;2023-05-23T01:29:23;13.25;;;10.00;;
36221;SDS011;22266;52.340;4.962;2023-05-23T01:31:53;10.75;;;10.50;;
36221;SDS011;22266;52.340;4.962;2023-05-23T01:34:23;11.75;;;11.25;;
36221;SDS011;22266;52.340;4.962;2023-05-23T01:36:54;17.50;;;16.25;;
36221;SDS011;22266;52.340;4.962;2023-05-23T01:39:21;14.25;;;13.75;;
36221;SDS011;22266;52.340;4.962;2023-05-23T01:41:51;15.00;;;13.00;;
36221;SDS011;22266;52.340;4.962;2023-05-23T01:44:19;13.75;;;12.75;;
36221;SDS011;22266;52.340;4.962;2023-05-23T01:46:46;14.50;;;14.50;;
36221;SDS011;22266;52.340;4.962;2023-05-23T01:49:13;20.00;;;14.25;;
36221;SDS011;22266;52.340;4.962;2023-05-23T01:51:43;13.75;;;11.25;;
36221;SDS011;22266;52.340;4.962;2023-05-23T01:54:10;16.25;;;11.25;;
36221;SDS011;22266;52.340;4.962;2023-05-23T01:56:39;13.25;;;11.25;;
36221;SDS011;22266;52.340;4.962;2023-05-23T01:59:08;15.00;;;13.75;;
36221;SDS011;22266;52.340;4.962;2023-05-23T02:01:35;11.00;;;10.50;;
36221;SDS011;22266;52.340;4.962;2023-05-23T02:04:03;9.75;;;9.50;;
36221;SDS011;22266;52.340;4.962;2023-05-23T02:06:29;17.50;;;14.50;;
36221;SDS011;22266;52.340;4.962;2023-05-23T02:08:57;15.75;;;11.75;;
36221;SDS011;22266;52.340;4.962;2023-05-23T02:11:23;13.75;;;11.50;;
36221;SDS011;22266;52.340;4.962;2023-05-23T02:13:50;11.00;;;10.00;;
36221;SDS011;22266;52.340;4.962;2023-05-23T02:16:17;14.75;;;14.00;;
36221;SDS011;22266;52.340;4.962;2023-05-23T02:18:43;7.50;;;5.25;;
36221;SDS011;22266;52.340;4.962;2023-05-23T02:21:11;15.25;;;10.75;;
36221;SDS011;22266;52.340;4.962;2023-05-23T02:23:37;16.75;;;11.50;;
36221;SDS011;22266;52.340;4.962;2023-05-23T02:26:04;12.75;;;9.00;;
36221;SDS011;22266;52.340;4.962;2023-05-23T02:28:30;14.00;;;10.75;;
36221;SDS011;22266;52.340;4.962;2023-05-23T02:30:57;12.50;;;10.75;;
36221;SDS011;22266;52.340;4.962;2023-05-23T02:33:23;13.25;;;8.00;;
36221;SDS011;22266;52.340;4.962;2023-05-23T02:35:50;12.25;;;12.00;;
36221;SDS011;22266;52.340;4.962;2023-05-23T02:38:17;13.00;;;11.00;;
36221;SDS011;22266;52.340;4.962;2023-05-23T02:40:45;10.00;;;9.25;;
36221;SDS011;22266;52.340;4.962;2023-05-23T02:43:12;14.25;;;12.25;;
36221;SDS011;22266;52.340;4.962;2023-05-23T02:45:38;7.00;;;6.50;;
36221;SDS011;22266;52.340;4.962;2023-05-23T02:48:05;7.75;;;7.75;;
36221;SDS011;22266;52.340;4.962;2023-05-23T02:50:32;10.75;;;8.00;;
36221;SDS011;22266;52.340;4.962;2023-05-23T02:52:59;10.00;;;9.00;;
36221;SDS011;22266;52.340;4.962;2023-05-23T02:55:25;9.00;;;9.00;;
36221;SDS011;22266;52.340;4.962;2023-05-23T02:57:52;11.25;;;9.50;;
36221;SDS011;22266;52.340;4.962;2023-05-23T03:00:19;9.25;;;7.00;;
36221;SDS011;22266;52.340;4.962;2023-05-23T03:02:50;7.00;;;6.67;;
36221;SDS011;22266;52.340;4.962;2023-05-23T03:05:17;9.25;;;9.25;;
36221;SDS011;22266;52.340;4.962;2023-05-23T03:07:44;9.75;;;7.00;;
36221;SDS011;22266;52.340;4.962;2023-05-23T03:10:11;5.00;;;4.67;;
36221;SDS011;22266;52.340;4.962;2023-05-23T03:12:37;5.25;;;5.25;;
36221;SDS011;22266;52.340;4.962;2023-05-23T03:15:04;9.50;;;7.00;;
36221;SDS011;22266;52.340;4.962;2023-05-23T03:17:31;7.00;;;6.50;;
36221;SDS011;22266;52.340;4.962;2023-05-23T03:19:57;5.75;;;5.25;;
36221;SDS011;22266;52.340;4.962;2023-05-23T03:22:24;9.25;;;6.50;;
36221;SDS011;22266;52.340;4.962;2023-05-23T03:24:50;8.50;;;6.25;;
36221;SDS011;22266;52.340;4.962;2023-05-23T03:27:17;6.00;;;5.00;;
36221;SDS011;22266;52.340;4.962;2023-05-23T03:29:43;5.75;;;5.00;;
36221;SDS011;22266;52.340;4.962;2023-05-23T03:32:09;6.25;;;5.00;;
36221;SDS011;22266;52.340;4.962;2023-05-23T03:34:36;10.25;;;6.00;;
36221;SDS011;22266;52.340;4.962;2023-05-23T03:37:03;4.50;;;4.50;;
36221;SDS011;22266;52.340;4.962;2023-05-23T03:39:30;6.00;;;5.00;;
36221;SDS011;22266;52.340;4.962;2023-05-23T03:41:57;6.00;;;6.00;;
36221;SDS011;22266;52.340;4.962;2023-05-23T03:44:23;8.00;;;6.25;;
36221;SDS011;22266;52.340;4.962;2023-05-23T03:46:50;8.75;;;5.00;;
36221;SDS011;22266;52.340;4.962;2023-05-23T03:49:17;7.00;;;6.00;;
36221;SDS011;22266;52.340;4.962;2023-05-23T03:51:44;9.00;;;7.00;;
36221;SDS011;22266;52.340;4.962;2023-05-23T03:54:14;4.00;;;3.00;;
36221;SDS011;22266;52.340;4.962;2023-05-23T03:56:42;4.50;;;4.50;;
36221;SDS011;22266;52.340;4.962;2023-05-23T03:59:09;7.00;;;6.00;;
36221;SDS011;22266;52.340;4.962;2023-05-23T04:01:35;8.75;;;7.00;;
36221;SDS011;22266;52.340;4.962;2023-05-23T04:04:02;10.25;;;5.25;;
36221;SDS011;22266;52.340;4.962;2023-05-23T04:06:32;5.00;;;5.00;;
36221;SDS011;22266;52.340;4.962;2023-05-23T04:08:59;9.50;;;6.50;;
36221;SDS011;22266;52.340;4.962;2023-05-23T04:11:26;8.50;;;7.25;;
36221;SDS011;22266;52.340;4.962;2023-05-23T04:13:53;6.00;;;6.00;;
36221;SDS011;22266;52.340;4.962;2023-05-23T04:16:19;5.75;;;4.75;;
36221;SDS011;22266;52.340;4.962;2023-05-23T04:18:47;6.00;;;6.00;;
36221;SDS011;22266;52.340;4.962;2023-05-23T04:21:14;5.75;;;5.75;;
36221;SDS011;22266;52.340;4.962;2023-05-23T04:24:02;2.75;;;1.25;;
36221;SDS011;22266;52.340;4.962;2023-05-23T04:26:29;11.00;;;7.00;;
36221;SDS011;22266;52.340;4.962;2023-05-23T04:28:55;5.50;;;5.00;;
36221;SDS011;22266;52.340;4.962;2023-05-23T04:31:22;5.75;;;5.75;;
36221;SDS011;22266;52.340;4.962;2023-05-23T04:33:49;7.50;;;6.00;;
36221;SDS011;22266;52.340;4.962;2023-05-23T04:36:17;8.50;;;5.00;;
36221;SDS011;22266;52.340;4.962;2023-05-23T04:38:49;11.00;;;9.25;;
36221;SDS011;22266;52.340;4.962;2023-05-23T04:41:15;6.50;;;6.50;;
36221;SDS011;22266;52.340;4.962;2023-05-23T04:44:00;5.50;;;5.25;;
36221;SDS011;22266;52.340;4.962;2023-05-23T04:46:35;9.00;;;7.25;;
36221;SDS011;22266;52.340;4.962;2023-05-23T04:49:37;13.25;;;13.00;;
36221;SDS011;22266;52.340;4.962;2023-05-23T04:52:03;10.50;;;9.00;;
36221;SDS011;22266;52.340;4.962;2023-05-23T04:54:31;7.50;;;7.00;;
36221;SDS011;22266;52.340;4.962;2023-05-23T04:57:02;7.75;;;7.75;;
36221;SDS011;22266;52.340;4.962;2023-05-23T04:59:28;7.50;;;7.50;;
36221;SDS011;22266;52.340;4.962;2023-05-23T05:01:55;6.75;;;6.75;;
36221;SDS011;22266;52.340;4.962;2023-05-23T05:04:21;11.25;;;8.00;;
36221;SDS011;22266;52.340;4.962;2023-05-23T05:06:49;9.00;;;7.75;;
36221;SDS011;22266;52.340;4.962;2023-05-23T05:09:16;9.50;;;9.00;;
36221;SDS011;22266;52.340;4.962;2023-05-23T05:11:43;8.25;;;8.25;;
36221;SDS011;22266;52.340;4.962;2023-05-23T05:14:09;12.00;;;8.00;;
36221;SDS011;22266;52.340;4.962;2023-05-23T05:16:37;9.75;;;9.75;;
36221;SDS011;22266;52.340;4.962;2023-05-23T05:19:04;11.50;;;10.50;;
36221;SDS011;22266;52.340;4.962;2023-05-23T05:21:31;12.50;;;10.00;;
36221;SDS011;22266;52.340;4.962;2023-05-23T05:23:57;8.00;;;8.00;;
36221;SDS011;22266;52.340;4.962;2023-05-23T05:26:25;11.75;;;9.75;;
36221;SDS011;22266;52.340;4.962;2023-05-23T05:28:52;8.25;;;6.00;;
36221;SDS011;22266;52.340;4.962;2023-05-23T05:31:19;13.75;;;10.00;;
36221;SDS011;22266;52.340;4.962;2023-05-23T05:33:46;9.00;;;8.00;;
36221;SDS011;22266;52.340;4.962;2023-05-23T05:36:14;7.50;;;7.50;;
36221;SDS011;22266;52.340;4.962;2023-05-23T05:38:42;9.00;;;7.00;;
36221;SDS011;22266;52.340;4.962;2023-05-23T05:41:08;7.75;;;7.75;;
36221;SDS011;22266;52.340;4.962;2023-05-23T05:43:40;13.00;;;10.50;;
36221;SDS011;22266;52.340;4.962;2023-05-23T05:46:07;8.00;;;6.00;;
36221;SDS011;22266;52.340;4.962;2023-05-23T05:48:33;8.75;;;8.00;;
36221;SDS011;22266;52.340;4.962;2023-05-23T05:51:04;7.25;;;6.50;;
36221;SDS011;22266;52.340;4.962;2023-05-23T05:53:32;8.25;;;7.50;;
36221;SDS011;22266;52.340;4.962;2023-05-23T05:55:59;11.00;;;6.25;;
36221;SDS011;22266;52.340;4.962;2023-05-23T05:58:26;9.00;;;9.00;;
36221;SDS011;22266;52.340;4.962;2023-05-23T06:00:56;5.00;;;3.75;;
36221;SDS011;22266;52.340;4.962;2023-05-23T06:03:24;2.75;;;2.75;;
36221;SDS011;22266;52.340;4.962;2023-05-23T06:05:53;5.00;;;4.75;;
36221;SDS011;22266;52.340;4.962;2023-05-23T06:08:20;6.50;;;3.50;;
36221;SDS011;22266;52.340;4.962;2023-05-23T06:10:47;5.00;;;3.25;;
36221;SDS011;22266;52.340;4.962;2023-05-23T06:13:14;4.50;;;4.00;;
36221;SDS011;22266;52.340;4.962;2023-05-23T06:15:44;2.25;;;2.25;;
36221;SDS011;22266;52.340;4.962;2023-05-23T06:18:12;7.50;;;5.00;;
36221;SDS011;22266;52.340;4.962;2023-05-23T06:20:41;3.00;;;2.00;;
36221;SDS011;22266;52.340;4.962;2023-05-23T06:23:13;2.00;;;2.00;;
36221;SDS011;22266;52.340;4.962;2023-05-23T06:25:40;3.00;;;3.00;;
36221;SDS011;22266;52.340;4.962;2023-05-23T06:28:06;4.50;;;2.00;;
36221;SDS011;22266;52.340;4.962;2023-05-23T06:30:33;2.25;;;2.25;;
36221;SDS011;22266;52.340;4.962;2023-05-23T06:33:02;3.00;;;3.00;;
36221;SDS011;22266;52.340;4.962;2023-05-23T06:35:29;4.25;;;4.00;;
36221;SDS011;22266;52.340;4.962;2023-05-23T06:37:59;2.75;;;2.75;;
36221;SDS011;22266;52.340;4.962;2023-05-23T06:40:25;4.00;;;3.75;;
36221;SDS011;22266;52.340;4.962;2023-05-23T06:42:52;2.50;;;2.50;;
36221;SDS011;22266;52.340;4.962;2023-05-23T06:45:29;6.00;;;3.25;;
36221;SDS011;22266;52.340;4.962;2023-05-23T06:47:55;2.50;;;2.50;;
36221;SDS011;22266;52.340;4.962;2023-05-23T06:50:23;1.50;;;1.50;;
36221;SDS011;22266;52.340;4.962;2023-05-23T06:52:51;2.50;;;2.50;;
36221;SDS011;22266;52.340;4.962;2023-05-23T06:55:17;1.50;;;1.50;;
36221;SDS011;22266;52.340;4.962;2023-05-23T06:57:47;3.50;;;3.00;;
36221;SDS011;22266;52.340;4.962;2023-05-23T07:00:18;9.00;;;4.00;;
36221;SDS011;22266;52.340;4.962;2023-05-23T07:02:58;6.50;;;3.00;;
36221;SDS011;22266;52.340;4.962;2023-05-23T07:05:29;4.50;;;2.00;;
36221;SDS011;22266;52.340;4.962;2023-05-23T07:07:56;4.00;;;2.75;;
36221;SDS011;22266;52.340;4.962;2023-05-23T07:10:23;2.00;;;2.00;;
36221;SDS011;22266;52.340;4.962;2023-05-23T07:12:54;4.50;;;2.00;;
36221;SDS011;22266;52.340;4.962;2023-05-23T07:15:21;4.00;;;1.00;;
36221;SDS011;22266;52.340;4.962;2023-05-23T07:18:03;4.50;;;3.00;;
36221;SDS011;22266;52.340;4.962;2023-05-23T07:20:31;5.00;;;2.00;;
36221;SDS011;22266;52.340;4.962;2023-05-23T07:23:08;1.75;;;1.75;;
36221;SDS011;22266;52.340;4.962;2023-05-23T07:25:35;7.50;;;4.00;;
36221;SDS011;22266;52.340;4.962;2023-05-23T07:28:09;1.25;;;1.25;;
36221;SDS011;22266;52.340;4.962;2023-05-23T07:30:36;1.75;;;1.75;;
36221;SDS011;22266;52.340;4.962;2023-05-23T07:33:02;2.75;;;1.00;;
36221;SDS011;22266;52.340;4.962;2023-05-23T07:35:31;4.25;;;2.00;;
36221;SDS011;22266;52.340;4.962;2023-05-23T07:37:58;2.00;;;2.00;;
36221;SDS011;22266;52.340;4.962;2023-05-23T07:40:26;3.50;;;3.50;;
36221;SDS011;22266;52.340;4.962;2023-05-23T07:42:52;1.00;;;1.00;;
36221;SDS011;22266;52.340;4.962;2023-05-23T07:45:19;5.00;;;3.00;;
36221;SDS011;22266;52.340;4.962;2023-05-23T07:47:46;1.00;;;1.00;;
36221;SDS011;22266;52.340;4.962;2023-05-23T07:50:13;2.75;;;2.00;;
36221;SDS011;22266;52.340;4.962;2023-05-23T07:52:40;2.75;;;1.25;;
36221;SDS011;22266;52.340;4.962;2023-05-23T07:55:10;3.00;;;2.00;;
36221;SDS011;22266;52.340;4.962;2023-05-23T07:57:37;1.50;;;1.50;;
36221;SDS011;22266;52.340;4.962;2023-05-23T08:00:03;4.50;;;2.75;;
36221;SDS011;22266;52.340;4.962;2023-05-23T08:02:40;1.00;;;1.00;;
36221;SDS011;22266;52.340;4.962;2023-05-23T08:05:11;2.50;;;2.50;;
36221;SDS011;22266;52.340;4.962;2023-05-23T08:07:37;3.25;;;1.75;;
36221;SDS011;22266;52.340;4.962;2023-05-23T08:10:04;2.00;;;2.00;;
36221;SDS011;22266;52.340;4.962;2023-05-23T08:12:31;2.00;;;2.00;;
36221;SDS011;22266;52.340;4.962;2023-05-23T08:15:06;3.25;;;2.75;;
36221;SDS011;22266;52.340;4.962;2023-05-23T08:17:41;4.00;;;3.75;;
36221;SDS011;22266;52.340;4.962;2023-05-23T08:20:07;1.50;;;1.50;;
36221;SDS011;22266;52.340;4.962;2023-05-23T08:22:35;4.00;;;3.25;;
36221;SDS011;22266;52.340;4.962;2023-05-23T08:25:03;5.75;;;5.50;;
36221;SDS011;22266;52.340;4.962;2023-05-23T08:27:33;6.00;;;4.00;;
36221;SDS011;22266;52.340;4.962;2023-05-23T08:30:08;4.00;;;2.00;;
36221;SDS011;22266;52.340;4.962;2023-05-23T08:32:37;4.00;;;2.00;;
36221;SDS011;22266;52.340;4.962;2023-05-23T08:35:04;1.75;;;1.50;;
36221;SDS011;22266;52.340;4.962;2023-05-23T08:37:31;2.50;;;2.50;;
36221;SDS011;22266;52.340;4.962;2023-05-23T08:39:58;2.00;;;2.00;;
36221;SDS011;22266;52.340;4.962;2023-05-23T08:42:38;5.00;;;4.00;;
36221;SDS011;22266;52.340;4.962;2023-05-23T08:45:07;2.00;;;2.00;;
36221;SDS011;22266;52.340;4.962;2023-05-23T08:47:37;7.75;;;6.00;;
36221;SDS011;22266;52.340;4.962;2023-05-23T08:50:09;2.50;;;2.50;;
36221;SDS011;22266;52.340;4.962;2023-05-23T08:52:40;3.75;;;2.50;;
36221;SDS011;22266;52.340;4.962;2023-05-23T08:55:10;2.00;;;1.00;;
36221;SDS011;22266;52.340;4.962;2023-05-23T08:57:38;3.00;;;2.25;;
36221;SDS011;22266;52.340;4.962;2023-05-23T09:00:25;3.00;;;3.00;;
36221;SDS011;22266;52.340;4.962;2023-05-23T09:02:53;3.75;;;2.00;;
36221;SDS011;22266;52.340;4.962;2023-05-23T09:05:40;1.00;;;1.00;;
36221;SDS011;22266;52.340;4.962;2023-05-23T09:08:08;2.00;;;2.00;;
36221;SDS011;22266;52.340;4.962;2023-05-23T09:10:34;3.33;;;1.33;;
36221;SDS011;22266;52.340;4.962;2023-05-23T09:13:03;1.00;;;1.00;;
36221;SDS011;22266;52.340;4.962;2023-05-23T09:15:30;3.00;;;2.33;;
36221;SDS011;22266;52.340;4.962;2023-05-23T09:17:58;6.00;;;1.00;;
36221;SDS011;22266;52.340;4.962;2023-05-23T09:20:27;6.33;;;4.67;;
36221;SDS011;22266;52.340;4.962;2023-05-23T09:22:57;1.67;;;1.67;;
36221;SDS011;22266;52.340;4.962;2023-05-23T09:25:27;3.00;;;1.00;;
36221;SDS011;22266;52.340;4.962;2023-05-23T09:27:54;3.00;;;3.00;;
36221;SDS011;22266;52.340;4.962;2023-05-23T09:30:22;11.00;;;10.75;;
36221;SDS011;22266;52.340;4.962;2023-05-23T09:32:58;6.50;;;5.00;;
36221;SDS011;22266;52.340;4.962;2023-05-23T09:35:31;5.50;;;2.50;;
36221;SDS011;22266;52.340;4.962;2023-05-23T09:37:58;4.00;;;4.00;;
36221;SDS011;22266;52.340;4.962;2023-05-23T09:40:28;2.00;;;2.00;;
36221;SDS011;22266;52.340;4.962;2023-05-23T09:43:00;2.67;;;2.67;;
36221;SDS011;22266;52.340;4.962;2023-05-23T09:45:29;3.00;;;2.00;;
36221;SDS011;22266;52.340;4.962;2023-05-23T09:47:59;5.00;;;5.00;;
36221;SDS011;22266;52.340;4.962;2023-05-23T09:50:31;2.00;;;2.00;;
36221;SDS011;22266;52.340;4.962;2023-05-23T09:53:00;3.67;;;3.67;;
36221;SDS011;22266;52.340;4.962;2023-05-23T09:55:27;3.33;;;2.00;;
36221;SDS011;22266;52.340;4.962;2023-05-23T09:57:53;3.00;;;2.50;;
36221;SDS011;22266;52.340;4.962;2023-05-23T10:00:23;2.33;;;2.00;;
36221;SDS011;22266;52.340;4.962;2023-05-23T10:02:54;1.00;;;1.00;;
36221;SDS011;22266;52.340;4.962;2023-05-23T10:05:34;2.00;;;1.00;;
36221;SDS011;22266;52.340;4.962;2023-05-23T10:08:09;3.00;;;3.00;;
36221;SDS011;22266;52.340;4.962;2023-05-23T10:13:21;2.33;;;2.33;;
36221;SDS011;22266;52.340;4.962;2023-05-23T10:15:54;2.75;;;2.00;;
36221;SDS011;22266;52.340;4.962;2023-05-23T10:18:32;2.00;;;1.00;;
36221;SDS011;22266;52.340;4.962;2023-05-23T10:21:08;5.00;;;3.00;;
36221;SDS011;22266;52.340;4.962;2023-05-23T10:23:37;3.00;;;3.00;;
36221;SDS011;22266;52.340;4.962;2023-05-23T10:26:04;3.75;;;3.75;;
36221;SDS011;22266;52.340;4.962;2023-05-23T10:28:32;3.00;;;3.00;;
36221;SDS011;22266;52.340;4.962;2023-05-23T10:30:58;4.33;;;2.00;;
36221;SDS011;22266;52.340;4.962;2023-05-23T10:33:26;3.00;;;2.33;;
36221;SDS011;22266;52.340;4.962;2023-05-23T10:35:59;4.33;;;4.33;;
36221;SDS011;22266;52.340;4.962;2023-05-23T10:42:12;5.00;;;3.67;;
36221;SDS011;22266;52.340;4.962;2023-05-23T10:44:30;2.00;;;1.33;;
36221;SDS011;22266;52.340;4.962;2023-05-23T10:46:58;2.33;;;1.00;;
36221;SDS011;22266;52.340;4.962;2023-05-23T10:52:11;3.00;;;3.00;;
36221;SDS011;22266;52.340;4.962;2023-05-23T10:57:10;3.33;;;3.33;;
36221;SDS011;22266;52.340;4.962;2023-05-23T10:59:38;2.67;;;2.00;;
36221;SDS011;22266;52.340;4.962;2023-05-23T11:02:07;2.00;;;2.00;;
36221;SDS011;22266;52.340;4.962;2023-05-23T11:04:39;3.00;;;2.00;;
36221;SDS011;22266;52.340;4.962;2023-05-23T11:10:30;5.00;;;4.33;;
36221;SDS011;22266;52.340;4.962;2023-05-23T11:12:49;2.67;;;2.67;;
36221;SDS011;22266;52.340;4.962;2023-05-23T11:17:49;3.33;;;3.33;;
36221;SDS011;22266;52.340;4.962;2023-05-23T11:20:18;3.67;;;2.33;;
36221;SDS011;22266;52.340;4.962;2023-05-23T11:22:53;2.00;;;2.00;;
36221;SDS011;22266;52.340;4.962;2023-05-23T11:28:18;5.00;;;3.00;;
36221;SDS011;22266;52.340;4.962;2023-05-23T11:30:48;2.00;;;2.00;;
36221;SDS011;22266;52.340;4.962;2023-05-23T11:33:16;3.33;;;1.33;;
36221;SDS011;22266;52.340;4.962;2023-05-23T11:35:47;2.00;;;1.00;;
36221;SDS011;22266;52.340;4.962;2023-05-23T11:38:17;2.00;;;1.00;;
36221;SDS011;22266;52.340;4.962;2023-05-23T11:40:44;2.00;;;1.33;;
36221;SDS011;22266;52.340;4.962;2023-05-23T11:43:15;2.00;;;2.00;;
36221;SDS011;22266;52.340;4.962;2023-05-23T11:45:43;6.33;;;2.00;;
36221;SDS011;22266;52.340;4.962;2023-05-23T11:48:15;1.33;;;1.33;;
36221;SDS011;22266;52.340;4.962;2023-05-23T11:50:43;3.67;;;2.00;;
36221;SDS011;22266;52.340;4.962;2023-05-23T11:53:12;2.33;;;2.33;;
36221;SDS011;22266;52.340;4.962;2023-05-23T11:55:39;0.67;;;0.67;;
36221;SDS011;22266;52.340;4.962;2023-05-23T11:58:07;0.00;;;0.00;;
36221;SDS011;22266;52.340;4.962;2023-05-23T12:00:34;2.00;;;2.00;;
36221;SDS011;22266;52.340;4.962;2023-05-23T12:03:08;2.00;;;2.00;;
36221;SDS011;22266;52.340;4.962;2023-05-23T12:05:35;6.00;;;5.33;;
36221;SDS011;22266;52.340;4.962;2023-05-23T12:08:02;1.67;;;1.67;;
36221;SDS011;22266;52.340;4.962;2023-05-23T12:10:29;3.00;;;1.00;;
36221;SDS011;22266;52.340;4.962;2023-05-23T12:12:55;1.33;;;1.33;;
36221;SDS011;22266;52.340;4.962;2023-05-23T12:15:25;1.33;;;1.33;;
36221;SDS011;22266;52.340;4.962;2023-05-23T12:17:55;3.33;;;3.33;;
36221;SDS011;22266;52.340;4.962;2023-05-23T12:20:22;3.00;;;2.00;;
36221;SDS011;22266;52.340;4.962;2023-05-23T12:22:49;5.33;;;2.00;;
36221;SDS011;22266;52.340;4.962;2023-05-23T12:25:16;1.00;;;1.00;;
36221;SDS011;22266;52.340;4.962;2023-05-23T12:27:42;5.00;;;3.00;;
36221;SDS011;22266;52.340;4.962;2023-05-23T12:30:13;2.33;;;2.00;;
36221;SDS011;22266;52.340;4.962;2023-05-23T12:32:42;2.00;;;2.00;;
36221;SDS011;22266;52.340;4.962;2023-05-23T12:35:11;2.00;;;2.00;;
36221;SDS011;22266;52.340;4.962;2023-05-23T12:37:44;0.67;;;0.67;;
36221;SDS011;22266;52.340;4.962;2023-05-23T12:40:12;2.00;;;2.00;;
36221;SDS011;22266;52.340;4.962;2023-05-23T12:42:58;4.00;;;2.00;;
36221;SDS011;22266;52.340;4.962;2023-05-23T12:45:34;5.00;;;1.00;;
36221;SDS011;22266;52.340;4.962;2023-05-23T12:48:02;2.00;;;1.67;;
36221;SDS011;22266;52.340;4.962;2023-05-23T12:50:29;2.00;;;2.00;;
36221;SDS011;22266;52.340;4.962;2023-05-23T12:52:56;2.33;;;2.00;;
36221;SDS011;22266;52.340;4.962;2023-05-23T12:55:23;2.67;;;2.67;;
36221;SDS011;22266;52.340;4.962;2023-05-23T12:57:49;3.67;;;2.00;;
36221;SDS011;22266;52.340;4.962;2023-05-23T13:00:16;2.00;;;2.00;;
36221;SDS011;22266;52.340;4.962;2023-05-23T13:02:44;2.33;;;2.00;;
36221;SDS011;22266;52.340;4.962;2023-05-23T13:05:11;2.00;;;2.00;;
36221;SDS011;22266;52.340;4.962;2023-05-23T13:07:38;1.67;;;1.00;;
36221;SDS011;22266;52.340;4.962;2023-05-23T13:10:04;1.00;;;1.00;;
36221;SDS011;22266;52.340;4.962;2023-05-23T13:12:31;3.00;;;3.00;;
36221;SDS011;22266;52.340;4.962;2023-05-23T13:14:59;3.00;;;2.33;;
36221;SDS011;22266;52.340;4.962;2023-05-23T13:17:26;2.33;;;2.00;;
36221;SDS011;22266;52.340;4.962;2023-05-23T13:19:52;4.00;;;2.00;;
36221;SDS011;22266;52.340;4.962;2023-05-23T13:22:19;2.00;;;2.00;;
36221;SDS011;22266;52.340;4.962;2023-05-23T13:24:45;2.33;;;0.67;;
36221;SDS011;22266;52.340;4.962;2023-05-23T13:27:12;4.33;;;1.00;;
36221;SDS011;22266;52.340;4.962;2023-05-23T13:29:38;4.33;;;3.00;;
36221;SDS011;22266;52.340;4.962;2023-05-23T13:32:05;0.25;;;0.25;;
36221;SDS011;22266;52.340;4.962;2023-05-23T13:34:32;2.00;;;1.00;;
36221;SDS011;22266;52.340;4.962;2023-05-23T13:37:02;1.00;;;1.00;;
36221;SDS011;22266;52.340;4.962;2023-05-23T13:39:29;2.00;;;1.67;;
36221;SDS011;22266;52.340;4.962;2023-05-23T13:41:55;1.00;;;1.00;;
36221;SDS011;22266;52.340;4.962;2023-05-23T13:44:22;2.33;;;2.00;;
36221;SDS011;22266;52.340;4.962;2023-05-23T13:46:48;1.33;;;1.33;;
36221;SDS011;22266;52.340;4.962;2023-05-23T13:49:15;5.33;;;2.00;;
36221;SDS011;22266;52.340;4.962;2023-05-23T13:51:42;4.33;;;1.00;;
36221;SDS011;22266;52.340;4.962;2023-05-23T13:54:09;1.00;;;1.00;;
36221;SDS011;22266;52.340;4.962;2023-05-23T13:56:36;0.25;;;0.25;;
36221;SDS011;22266;52.340;4.962;2023-05-23T13:59:04;1.00;;;1.00;;
36221;SDS011;22266;52.340;4.962;2023-05-23T14:01:31;1.33;;;1.33;;
36221;SDS011;22266;52.340;4.962;2023-05-23T14:03:57;1.00;;;1.00;;
36221;SDS011;22266;52.340;4.962;2023-05-23T14:06:24;3.00;;;2.00;;
36221;SDS011;22266;52.340;4.962;2023-05-23T14:08:50;4.00;;;2.00;;
36221;SDS011;22266;52.340;4.962;2023-05-23T14:11:17;4.33;;;3.33;;
36221;SDS011;22266;52.340;4.962;2023-05-23T14:13:43;4.33;;;2.00;;
36221;SDS011;22266;52.340;4.962;2023-05-23T14:16:10;1.00;;;1.00;;
36221;SDS011;22266;52.340;4.962;2023-05-23T14:18:36;2.00;;;1.00;;
36221;SDS011;22266;52.340;4.962;2023-05-23T14:21:03;2.00;;;2.00;;
36221;SDS011;22266;52.340;4.962;2023-05-23T14:23:29;1.33;;;1.33;;
36221;SDS011;22266;52.340;4.962;2023-05-23T14:25:59;1.00;;;1.00;;
36221;SDS011;22266;52.340;4.962;2023-05-23T14:28:26;2.00;;;1.67;;
36221;SDS011;22266;52.340;4.962;2023-05-23T14:30:53;2.00;;;1.00;;
36221;SDS011;22266;52.340;4.962;2023-05-23T14:33:20;3.00;;;2.00;;
36221;SDS011;22266;52.340;4.962;2023-05-23T14:35:47;1.00;;;1.00;;
36221;SDS011;22266;52.340;4.962;2023-05-23T14:38:14;1.00;;;1.00;;
36221;SDS011;22266;52.340;4.962;2023-05-23T14:40:41;2.33;;;2.00;;
36221;SDS011;22266;52.340;4.962;2023-05-23T14:43:09;0.33;;;0.33;;
36221;SDS011;22266;52.340;4.962;2023-05-23T14:45:36;1.00;;;1.00;;
36221;SDS011;22266;52.340;4.962;2023-05-23T14:48:03;2.00;;;2.00;;
36221;SDS011;22266;52.340;4.962;2023-05-23T14:50:31;4.67;;;4.00;;
36221;SDS011;22266;52.340;4.962;2023-05-23T14:52:57;3.00;;;2.00;;
36221;SDS011;22266;52.340;4.962;2023-05-23T14:55:24;1.33;;;1.00;;
36221;SDS011;22266;52.340;4.962;2023-05-23T14:57:51;1.00;;;0.67;;
36221;SDS011;22266;52.340;4.962;2023-05-23T15:00:18;1.00;;;1.00;;
36221;SDS011;22266;52.340;4.962;2023-05-23T15:02:44;1.67;;;1.67;;
36221;SDS011;22266;52.340;4.962;2023-05-23T15:05:11;5.00;;;2.00;;
36221;SDS011;22266;52.340;4.962;2023-05-23T15:07:39;2.00;;;1.33;;
36221;SDS011;22266;52.340;4.962;2023-05-23T15:10:05;1.00;;;1.00;;
36221;SDS011;22266;52.340;4.962;2023-05-23T15:12:33;0.00;;;0.00;;
36221;SDS011;22266;52.340;4.962;2023-05-23T15:15:00;1.00;;;1.00;;
36221;SDS011;22266;52.340;4.962;2023-05-23T15:17:30;2.00;;;2.00;;
36221;SDS011;22266;52.340;4.962;2023-05-23T15:19:58;1.00;;;1.00;;
36221;SDS011;22266;52.340;4.962;2023-05-23T15:22:25;2.00;;;2.00;;